Time;durP1;ratioP1;P1;durP2;ratioP2;P2;SDS_P1;SDS_P2;PMS_P1;PMS_P2;Temp;Humidity;BMP_temperature;BMP_pressure;BME280_temperature;BME280_humidity;BME280_pressure;Samples;Min_cycle;Max_cycle;Signal;HPM_P1;HPM_P2
2022/06/20 00:02:16;;;;;;;5.50;3.17;;;;;;;;;;5039196;28;20456;-73
2022/06/20 00:04:44;;;;;;;4.13;3.53;;;;;;;;;;5056026;28;20493;-73
2022/06/20 00:07:13;;;;;;;5.70;3.37;;;;;;;;;;5055505;28;20472;-73
2022/06/20 00:09:41;;;;;;;5.13;4.23;;;;;;;;;;5056038;28;20457;-74
2022/06/20 00:12:10;;;;;;;6.60;3.63;;;;;;;;;;5052481;28;20461;-74
2022/06/20 00:14:39;;;;;;;5.07;3.50;;;;;;;;;;5035310;28;20464;-73
2022/06/20 00:17:10;;;;;;;5.73;4.40;;;;;;;;;;5035090;28;20508;-74
2022/06/20 00:19:38;;;;;;;6.23;4.00;;;;;;;;;;5036484;28;20474;-74
2022/06/20 00:22:06;;;;;;;7.00;4.20;;;;;;;;;;5036121;28;20524;-74
2022/06/20 00:24:34;;;;;;;5.80;4.10;;;;;;;;;;5036761;28;20462;-74
2022/06/20 00:27:06;;;;;;;5.20;4.10;;;;;;;;;;5043426;28;20782;-74
2022/06/20 00:29:34;;;;;;;6.43;4.60;;;;;;;;;;5047947;28;20493;-74
2022/06/20 00:32:04;;;;;;;6.20;4.80;;;;;;;;;;5053632;28;20878;-72
2022/06/20 00:34:33;;;;;;;6.93;4.87;;;;;;;;;;5038951;28;20499;-74
2022/06/20 00:37:01;;;;;;;6.27;4.63;;;;;;;;;;5039697;28;20588;-73
2022/06/20 00:39:29;;;;;;;9.17;5.07;;;;;;;;;;5053826;28;20442;-73
2022/06/20 00:41:57;;;;;;;6.63;4.40;;;;;;;;;;5048021;28;20797;-74
2022/06/20 00:44:28;;;;;;;6.83;4.40;;;;;;;;;;5038534;28;20561;-73
2022/06/20 00:46:58;;;;;;;6.53;3.83;;;;;;;;;;5046693;28;20557;-73
2022/06/20 00:49:29;;;;;;;9.70;4.30;;;;;;;;;;5042902;28;20557;-73
2022/06/20 00:52:00;;;;;;;6.57;4.20;;;;;;;;;;5040638;28;20485;-73
2022/06/20 00:54:31;;;;;;;6.63;4.60;;;;;;;;;;5036084;28;20461;-74
2022/06/20 00:57:02;;;;;;;7.43;5.10;;;;;;;;;;5034517;28;20482;-73
2022/06/20 00:59:32;;;;;;;8.37;4.83;;;;;;;;;;5035979;28;20474;-73
2022/06/20 01:02:00;;;;;;;6.83;5.03;;;;;;;;;;5034529;28;20459;-73
2022/06/20 01:04:31;;;;;;;8.40;4.57;;;;;;;;;;5034474;28;20454;-73
2022/06/20 01:07:00;;;;;;;8.17;4.87;;;;;;;;;;5048191;28;20457;-73
2022/06/20 01:09:31;;;;;;;6.60;5.00;;;;;;;;;;5035672;28;20468;-73
2022/06/20 01:12:02;;;;;;;8.20;5.00;;;;;;;;;;5036338;28;20965;-73
2022/06/20 01:14:34;;;;;;;8.43;4.40;;;;;;;;;;5049960;28;21503;-73
2022/06/20 01:17:03;;;;;;;7.30;5.47;;;;;;;;;;5043111;28;20478;-73
2022/06/20 01:19:46;;;;;;;9.00;4.03;;;;;;;;;;5035608;28;20561;-73
2022/06/20 01:22:29;;;;;;;8.97;4.33;;;;;;;;;;5042929;28;20445;-73
2022/06/20 01:25:03;;;;;;;5.40;4.23;;;;;;;;;;5043196;28;20896;-73
2022/06/20 01:27:34;;;;;;;7.63;5.33;;;;;;;;;;5043799;28;20457;-73
2022/06/20 01:30:03;;;;;;;8.07;4.60;;;;;;;;;;5054491;28;20440;-73
2022/06/20 01:32:31;;;;;;;7.47;4.57;;;;;;;;;;5044971;28;20910;-72
2022/06/20 01:35:00;;;;;;;5.47;4.90;;;;;;;;;;5042312;28;21069;-73
2022/06/20 01:37:27;;;;;;;6.23;4.57;;;;;;;;;;5033504;28;20823;-74
2022/06/20 01:39:56;;;;;;;8.60;5.00;;;;;;;;;;5046806;28;20453;-74
2022/06/20 01:42:23;;;;;;;5.90;4.27;;;;;;;;;;5037797;28;20454;-73
2022/06/20 01:44:54;;;;;;;9.50;4.63;;;;;;;;;;5035147;28;20879;-74
2022/06/20 01:47:22;;;;;;;6.43;3.93;;;;;;;;;;5033987;28;20465;-73
2022/06/20 01:49:52;;;;;;;5.67;3.40;;;;;;;;;;5053210;28;20541;-73
2022/06/20 01:52:23;;;;;;;10.27;5.20;;;;;;;;;;5045471;28;20462;-73
2022/06/20 01:54:54;;;;;;;9.40;4.77;;;;;;;;;;5034233;28;20454;-73
2022/06/20 01:57:23;;;;;;;12.07;4.90;;;;;;;;;;5033925;28;20486;-74
2022/06/20 01:59:57;;;;;;;8.00;4.50;;;;;;;;;;5048494;28;20449;-73
2022/06/20 02:02:25;;;;;;;8.83;5.47;;;;;;;;;;5049905;28;20454;-73
2022/06/20 02:04:53;;;;;;;6.83;4.80;;;;;;;;;;5046516;28;20461;-73
2022/06/20 02:07:21;;;;;;;8.30;5.00;;;;;;;;;;5038205;28;20947;-72
2022/06/20 02:09:49;;;;;;;5.90;4.07;;;;;;;;;;5038079;28;21525;-73
2022/06/20 02:12:17;;;;;;;8.83;4.40;;;;;;;;;;5037492;28;20457;-74
2022/06/20 02:14:48;;;;;;;8.43;5.20;;;;;;;;;;5038406;28;21062;-73
2022/06/20 02:17:20;;;;;;;8.00;5.30;;;;;;;;;;5051797;28;21625;-73
2022/06/20 02:19:50;;;;;;;8.73;5.23;;;;;;;;;;5037992;28;20878;-73
2022/06/20 02:22:19;;;;;;;8.53;4.80;;;;;;;;;;5038857;28;20714;-73
2022/06/20 02:24:49;;;;;;;5.57;3.63;;;;;;;;;;5046353;28;20462;-73
2022/06/20 02:27:21;;;;;;;5.37;4.47;;;;;;;;;;5038139;28;20458;-73
2022/06/20 02:29:49;;;;;;;11.10;5.00;;;;;;;;;;5038840;28;20462;-74
2022/06/20 02:32:21;;;;;;;8.00;4.17;;;;;;;;;;5037041;28;20825;-73
2022/06/20 02:34:49;;;;;;;8.93;4.97;;;;;;;;;;5046134;28;20456;-73
2022/06/20 02:37:20;;;;;;;5.13;3.50;;;;;;;;;;5057766;28;20480;-73
2022/06/20 02:39:49;;;;;;;7.40;3.53;;;;;;;;;;5048508;28;20460;-72
2022/06/20 02:42:20;;;;;;;7.60;3.93;;;;;;;;;;5038647;28;20450;-74
2022/06/20 02:44:49;;;;;;;8.60;4.20;;;;;;;;;;5037042;28;20451;-73
2022/06/20 02:47:20;;;;;;;7.50;3.97;;;;;;;;;;5042434;28;20768;-71
2022/06/20 02:49:48;;;;;;;8.13;4.33;;;;;;;;;;5056993;28;20552;-73
2022/06/20 02:52:26;;;;;;;5.90;3.33;;;;;;;;;;5044381;28;20450;-73
2022/06/20 02:54:55;;;;;;;8.77;3.20;;;;;;;;;;5046361;28;20456;-73
2022/06/20 02:57:28;;;;;;;7.87;3.57;;;;;;;;;;5042921;28;20593;-71
2022/06/20 02:59:57;;;;;;;9.90;5.10;;;;;;;;;;5044487;28;20492;-74
2022/06/20 03:02:29;;;;;;;3.70;3.27;;;;;;;;;;5044335;28;20764;-73
2022/06/20 03:04:57;;;;;;;10.00;3.57;;;;;;;;;;5044665;28;20453;-73
2022/06/20 03:07:26;;;;;;;8.50;3.70;;;;;;;;;;5037491;28;20466;-73
2022/06/20 03:09:56;;;;;;;10.97;4.67;;;;;;;;;;5043498;28;20876;-73
2022/06/20 03:12:25;;;;;;;9.90;3.60;;;;;;;;;;5055830;28;20518;-73
2022/06/20 03:15:00;;;;;;;7.50;3.37;;;;;;;;;;5056512;28;20530;-71
2022/06/20 03:17:33;;;;;;;8.93;3.10;;;;;;;;;;5047368;28;20568;-73
2022/06/20 03:20:06;;;;;;;5.87;2.67;;;;;;;;;;5036563;28;20461;-72
2022/06/20 03:22:35;;;;;;;4.73;3.17;;;;;;;;;;5035495;28;20461;-73
2022/06/20 03:25:11;;;;;;;8.50;3.30;;;;;;;;;;5037218;28;20462;-73
2022/06/20 03:27:42;;;;;;;5.50;2.77;;;;;;;;;;5036253;28;20458;-73
2022/06/20 03:30:22;;;;;;;7.97;2.57;;;;;;;;;;5050132;28;20465;-72
2022/06/20 03:32:55;;;;;;;6.13;2.77;;;;;;;;;;5057579;28;21103;-73
2022/06/20 03:35:26;;;;;;;6.00;2.20;;;;;;;;;;5056392;28;20465;-73
2022/06/20 03:37:54;;;;;;;5.90;2.80;;;;;;;;;;5053729;28;20493;-73
2022/06/20 03:40:22;;;;;;;8.40;2.57;;;;;;;;;;5056265;28;20832;-73
2022/06/20 03:42:49;;;;;;;4.77;2.23;;;;;;;;;;5046915;28;20545;-73
2022/06/20 03:45:17;;;;;;;8.93;2.47;;;;;;;;;;5047934;28;20473;-73
2022/06/20 03:47:48;;;;;;;7.60;2.73;;;;;;;;;;5040927;28;20476;-73
2022/06/20 03:50:20;;;;;;;5.60;2.40;;;;;;;;;;5055881;28;20453;-73
2022/06/20 03:52:49;;;;;;;4.20;1.70;;;;;;;;;;5039903;28;20560;-73
2022/06/20 03:55:22;;;;;;;7.83;2.97;;;;;;;;;;5056093;28;20464;-73
2022/06/20 03:57:54;;;;;;;6.67;2.97;;;;;;;;;;5044258;28;20605;-73
2022/06/20 04:00:25;;;;;;;7.80;2.30;;;;;;;;;;5036997;28;20469;-73
2022/06/20 04:02:56;;;;;;;7.43;2.57;;;;;;;;;;5037064;28;20462;-73
2022/06/20 04:05:30;;;;;;;4.93;3.20;;;;;;;;;;5045070;28;20458;-73
2022/06/20 04:08:00;;;;;;;6.10;2.30;;;;;;;;;;5040486;28;20587;-73
2022/06/20 04:13:20;;;;;;;7.47;2.50;;;;;;;;;;5043680;28;21003;-72
2022/06/20 04:15:51;;;;;;;7.60;2.30;;;;;;;;;;5039322;28;20536;-73
2022/06/20 04:18:29;;;;;;;4.00;2.03;;;;;;;;;;5045534;28;20498;-73
2022/06/20 04:21:04;;;;;;;5.10;2.03;;;;;;;;;;5036430;28;20482;-73
2022/06/20 04:23:38;;;;;;;11.03;2.90;;;;;;;;;;5042869;28;20471;-73
2022/06/20 04:26:12;;;;;;;11.43;2.80;;;;;;;;;;5036037;28;20798;-72
2022/06/20 04:28:42;;;;;;;6.27;2.00;;;;;;;;;;5035292;28;20463;-74
2022/06/20 04:31:13;;;;;;;7.17;2.43;;;;;;;;;;5034639;28;20477;-73
2022/06/20 04:33:43;;;;;;;6.20;2.00;;;;;;;;;;5045166;28;20542;-73
2022/06/20 04:36:17;;;;;;;8.83;2.70;;;;;;;;;;5053265;28;20454;-73
2022/06/20 04:38:46;;;;;;;5.57;2.07;;;;;;;;;;5053534;28;20523;-73
2022/06/20 04:41:17;;;;;;;3.60;2.30;;;;;;;;;;5053124;28;20450;-73
2022/06/20 04:43:48;;;;;;;9.23;2.70;;;;;;;;;;5053108;28;20457;-73
2022/06/20 04:46:20;;;;;;;7.67;2.50;;;;;;;;;;5052659;28;20730;-72
2022/06/20 04:48:48;;;;;;;4.77;2.43;;;;;;;;;;5052551;28;20655;-73
2022/06/20 04:51:19;;;;;;;8.93;2.70;;;;;;;;;;5052148;28;20452;-73
2022/06/20 04:53:50;;;;;;;10.97;2.73;;;;;;;;;;5052809;28;20901;-73
2022/06/20 04:56:26;;;;;;;11.30;2.77;;;;;;;;;;5050582;28;20446;-73
2022/06/20 04:58:55;;;;;;;8.70;3.30;;;;;;;;;;5051412;28;20453;-72
2022/06/20 05:01:23;;;;;;;7.67;2.90;;;;;;;;;;5047917;28;20456;-72
2022/06/20 05:03:55;;;;;;;7.93;2.47;;;;;;;;;;5052130;28;20912;-72
2022/06/20 05:06:26;;;;;;;7.37;2.57;;;;;;;;;;5050354;28;20445;-74
2022/06/20 05:08:55;;;;;;;5.40;2.77;;;;;;;;;;5050672;28;20821;-73
2022/06/20 05:11:25;;;;;;;11.27;3.27;;;;;;;;;;5053562;28;20555;-73
2022/06/20 05:13:57;;;;;;;7.40;2.40;;;;;;;;;;5070018;28;20616;-74
2022/06/20 05:16:27;;;;;;;6.77;2.30;;;;;;;;;;5069803;28;20774;-73
2022/06/20 05:18:56;;;;;;;6.93;2.47;;;;;;;;;;5068741;28;20955;-73
2022/06/20 05:21:28;;;;;;;8.40;2.30;;;;;;;;;;5067290;28;20728;-73
2022/06/20 05:23:59;;;;;;;3.90;1.90;;;;;;;;;;5067392;28;20494;-72
2022/06/20 05:26:29;;;;;;;6.90;2.03;;;;;;;;;;5068750;28;20559;-73
2022/06/20 05:28:59;;;;;;;6.20;3.53;;;;;;;;;;5068471;28;20460;-74
2022/06/20 05:31:37;;;;;;;5.70;2.00;;;;;;;;;;5068356;28;20518;-72
2022/06/20 05:34:09;;;;;;;6.23;2.97;;;;;;;;;;5059140;28;20776;-73
2022/06/20 05:36:46;;;;;;;11.33;2.27;;;;;;;;;;5032910;28;21028;-73
2022/06/20 05:39:16;;;;;;;6.90;2.00;;;;;;;;;;5048016;28;20757;-72
2022/06/20 05:41:44;;;;;;;6.10;1.70;;;;;;;;;;5051497;28;20460;-73
2022/06/20 05:44:13;;;;;;;6.57;2.00;;;;;;;;;;5047195;28;20855;-74
2022/06/20 05:46:43;;;;;;;7.30;2.30;;;;;;;;;;5036166;28;20450;-73
2022/06/20 05:49:13;;;;;;;5.30;1.83;;;;;;;;;;5039089;28;20489;-73
2022/06/20 05:51:45;;;;;;;5.53;2.30;;;;;;;;;;5038088;28;20454;-74
2022/06/20 05:54:15;;;;;;;6.03;2.10;;;;;;;;;;5039425;28;20550;-72
2022/06/20 05:56:45;;;;;;;7.27;1.30;;;;;;;;;;5030482;28;20545;-73
2022/06/20 05:59:19;;;;;;;5.20;1.70;;;;;;;;;;5030202;28;20983;-73
2022/06/20 06:01:47;;;;;;;11.07;3.70;;;;;;;;;;5031242;28;20465;-71
2022/06/20 06:04:19;;;;;;;5.77;2.27;;;;;;;;;;5031243;28;20482;-72
2022/06/20 06:06:50;;;;;;;6.30;2.20;;;;;;;;;;5038596;28;20542;-73
2022/06/20 06:09:21;;;;;;;9.37;2.07;;;;;;;;;;5040494;28;20851;-72
2022/06/20 06:11:54;;;;;;;10.23;2.80;;;;;;;;;;5042511;28;20507;-72
2022/06/20 06:14:27;;;;;;;5.70;1.57;;;;;;;;;;5041799;28;20473;-72
2022/06/20 06:16:58;;;;;;;8.20;2.20;;;;;;;;;;5041125;28;20476;-73
2022/06/20 06:19:31;;;;;;;5.60;1.83;;;;;;;;;;5036546;28;20469;-71
2022/06/20 06:22:03;;;;;;;10.90;3.37;;;;;;;;;;5041122;28;20461;-73
2022/06/20 06:24:35;;;;;;;10.30;1.97;;;;;;;;;;5035993;28;20492;-72
2022/06/20 06:27:03;;;;;;;7.80;2.30;;;;;;;;;;5034884;28;20447;-73
2022/06/20 06:29:39;;;;;;;10.70;2.60;;;;;;;;;;5032459;28;20505;-72
2022/06/20 06:32:12;;;;;;;10.23;2.10;;;;;;;;;;5043584;28;20445;-73
2022/06/20 06:34:44;;;;;;;11.60;2.20;;;;;;;;;;5032446;28;20462;-72
2022/06/20 06:37:16;;;;;;;5.50;2.23;;;;;;;;;;5032352;28;20451;-73
2022/06/20 06:39:50;;;;;;;10.33;2.37;;;;;;;;;;5036958;28;20484;-72
2022/06/20 06:42:20;;;;;;;7.10;2.30;;;;;;;;;;5036446;28;20476;-72
2022/06/20 06:44:50;;;;;;;14.90;1.97;;;;;;;;;;5039021;28;20855;-73
2022/06/20 06:47:20;;;;;;;9.53;3.10;;;;;;;;;;5041568;28;20521;-72
2022/06/20 06:49:49;;;;;;;5.60;2.03;;;;;;;;;;5034754;28;20454;-73
2022/06/20 06:52:20;;;;;;;9.33;2.37;;;;;;;;;;5044413;28;20871;-73
2022/06/20 06:54:54;;;;;;;8.40;2.13;;;;;;;;;;5046665;28;20751;-71
2022/06/20 06:57:25;;;;;;;9.00;2.23;;;;;;;;;;5047074;28;20485;-72
2022/06/20 06:59:57;;;;;;;10.97;2.00;;;;;;;;;;5040321;28;20548;-73
2022/06/20 07:02:27;;;;;;;8.10;2.00;;;;;;;;;;5044266;28;20469;-72
2022/06/20 07:05:01;;;;;;;5.87;1.90;;;;;;;;;;5034250;28;20458;-72
2022/06/20 07:07:41;;;;;;;6.17;1.93;;;;;;;;;;5034683;28;20479;-74
2022/06/20 07:10:14;;;;;;;5.30;1.60;;;;;;;;;;5040273;28;20464;-73
2022/06/20 07:12:48;;;;;;;5.33;1.50;;;;;;;;;;5043406;28;20587;-73
2022/06/20 07:15:17;;;;;;;13.07;2.07;;;;;;;;;;5036190;28;21072;-73
2022/06/20 07:17:49;;;;;;;5.70;1.63;;;;;;;;;;5040452;28;20485;-73
2022/06/20 07:20:17;;;;;;;6.03;1.70;;;;;;;;;;5042916;28;20937;-73
2022/06/20 07:22:48;;;;;;;5.03;1.20;;;;;;;;;;5034689;28;21039;-73
2022/06/20 07:25:18;;;;;;;3.67;1.23;;;;;;;;;;5038148;28;20468;-72
2022/06/20 07:27:49;;;;;;;8.10;2.50;;;;;;;;;;5036756;28;20460;-73
2022/06/20 07:30:25;;;;;;;7.47;1.70;;;;;;;;;;5035016;28;20470;-73
2022/06/20 07:32:55;;;;;;;5.87;2.10;;;;;;;;;;5038838;28;20461;-73
2022/06/20 07:35:25;;;;;;;5.33;1.43;;;;;;;;;;5048256;28;20477;-71
2022/06/20 07:37:58;;;;;;;4.50;1.27;;;;;;;;;;5040307;28;20485;-73
2022/06/20 07:40:28;;;;;;;6.13;3.10;;;;;;;;;;5035021;28;20453;-72
2022/06/20 07:42:58;;;;;;;4.37;1.40;;;;;;;;;;5033553;28;20462;-72
2022/06/20 07:45:32;;;;;;;3.30;1.00;;;;;;;;;;5046291;28;20481;-73
2022/06/20 07:48:01;;;;;;;6.47;1.50;;;;;;;;;;5039243;28;20545;-73
2022/06/20 07:50:34;;;;;;;4.60;1.20;;;;;;;;;;5050174;28;20539;-74
2022/06/20 07:53:09;;;;;;;3.73;1.17;;;;;;;;;;5040383;28;20497;-72
2022/06/20 07:55:43;;;;;;;6.40;1.23;;;;;;;;;;5033275;28;20489;-72
2022/06/20 07:58:13;;;;;;;6.20;1.60;;;;;;;;;;5035405;28;20505;-74
2022/06/20 08:00:58;;;;;;;3.33;1.07;;;;;;;;;;5040873;28;20497;-72
2022/06/20 08:03:28;;;;;;;8.80;1.43;;;;;;;;;;5039892;28;20569;-73
2022/06/20 08:06:07;;;;;;;7.13;3.00;;;;;;;;;;5042120;28;20963;-72
2022/06/20 08:08:58;;;;;;;4.63;1.20;;;;;;;;;;5048646;28;20559;-72
2022/06/20 08:11:47;;;;;;;7.00;1.30;;;;;;;;;;5042713;28;20892;-72
2022/06/20 08:14:24;;;;;;;3.00;1.10;;;;;;;;;;5043145;28;20841;-73
2022/06/20 08:16:56;;;;;;;3.83;1.23;;;;;;;;;;5040191;28;20683;-72
2022/06/20 08:19:25;;;;;;;5.57;1.40;;;;;;;;;;5042674;28;20583;-73
2022/06/20 08:21:59;;;;;;;5.10;1.23;;;;;;;;;;5035335;28;20523;-73
2022/06/20 08:24:31;;;;;;;4.80;2.03;;;;;;;;;;5042266;28;20818;-71
2022/06/20 08:27:07;;;;;;;6.77;1.20;;;;;;;;;;5033738;28;21081;-72
2022/06/20 08:29:51;;;;;;;10.37;2.50;;;;;;;;;;5037814;28;20648;-71
2022/06/20 08:32:26;;;;;;;7.63;1.43;;;;;;;;;;5041935;28;20784;-71
2022/06/20 08:34:59;;;;;;;4.33;1.57;;;;;;;;;;5039548;28;20503;-71
2022/06/20 08:37:38;;;;;;;4.00;0.97;;;;;;;;;;5043645;28;20552;-72
2022/06/20 08:40:18;;;;;;;4.17;1.20;;;;;;;;;;5036950;28;20484;-71
2022/06/20 08:42:58;;;;;;;7.60;1.90;;;;;;;;;;5038073;28;20469;-71
2022/06/20 08:45:38;;;;;;;4.37;1.43;;;;;;;;;;5041243;28;20471;-71
2022/06/20 08:48:23;;;;;;;6.70;1.53;;;;;;;;;;5041265;28;20466;-72
2022/06/20 08:51:18;;;;;;;5.70;1.30;;;;;;;;;;5011431;28;20475;-72
2022/06/20 08:54:06;;;;;;;2.83;1.30;;;;;;;;;;5000214;28;20466;-71
2022/06/20 08:59:46;;;;;;;10.47;2.33;;;;;;;;;;5033475;28;20470;-71
2022/06/20 09:02:24;;;;;;;3.30;1.03;;;;;;;;;;5043002;28;20454;-71
2022/06/20 09:05:00;;;;;;;8.27;1.67;;;;;;;;;;5035721;28;20469;-71
2022/06/20 09:07:40;;;;;;;5.90;1.67;;;;;;;;;;5040477;28;20482;-72
2022/06/20 09:10:21;;;;;;;2.97;1.43;;;;;;;;;;5034387;28;20482;-71
2022/06/20 09:13:17;;;;;;;3.93;1.20;;;;;;;;;;5040747;28;20827;-71
2022/06/20 09:15:53;;;;;;;5.47;1.37;;;;;;;;;;5043313;28;20454;-71
2022/06/20 09:18:27;;;;;;;3.53;1.10;;;;;;;;;;5044671;28;20485;-71
2022/06/20 09:21:00;;;;;;;7.87;1.90;;;;;;;;;;5033188;28;20462;-71
2022/06/20 09:23:37;;;;;;;2.70;1.23;;;;;;;;;;5032333;28;20851;-72
2022/06/20 09:26:12;;;;;;;4.57;1.40;;;;;;;;;;5047666;28;20468;-71
2022/06/20 09:28:59;;;;;;;4.30;1.47;;;;;;;;;;5034939;28;20465;-71
2022/06/20 09:31:50;;;;;;;2.50;1.90;;;;;;;;;;5033263;28;20462;-74
2022/06/20 09:34:45;;;;;;;7.57;1.20;;;;;;;;;;5032609;28;20450;-73
2022/06/20 09:37:44;;;;;;;5.00;1.27;;;;;;;;;;5033892;28;20532;-73
2022/06/20 09:40:20;;;;;;;5.17;1.20;;;;;;;;;;5033367;28;20501;-73
2022/06/20 09:42:56;;;;;;;4.10;1.77;;;;;;;;;;5032798;28;20528;-73
2022/06/20 09:45:28;;;;;;;4.00;1.27;;;;;;;;;;5039862;28;20469;-71
2022/06/20 09:48:22;;;;;;;;;;;;;;;;;;;;;
2022/06/20 09:50:55;;;;;;;5.37;1.00;;;;;;;;;;5049037;28;20445;-72
2022/06/20 09:59:49;;;;;;;4.03;1.63;;;;;;;;;;5041055;28;20496;-74
2022/06/20 10:02:25;;;;;;;3.80;1.40;;;;;;;;;;5047417;28;20777;-73
2022/06/20 10:05:13;;;;;;;4.87;1.47;;;;;;;;;;5053528;28;20481;-73
2022/06/20 10:07:45;;;;;;;5.50;1.80;;;;;;;;;;5039873;28;20954;-73
2022/06/20 10:10:24;;;;;;;3.50;1.07;;;;;;;;;;5035009;28;20489;-72
2022/06/20 10:13:08;;;;;;;3.20;1.83;;;;;;;;;;5039258;28;20482;-72
2022/06/20 10:15:39;;;;;;;2.63;0.80;;;;;;;;;;5031975;28;20972;-74
2022/06/20 10:18:37;;;;;;;2.00;1.07;;;;;;;;;;5049417;28;20901;-72
2022/06/20 10:21:12;;;;;;;6.10;1.87;;;;;;;;;;5037036;28;20502;-73
2022/06/20 10:23:51;;;;;;;2.30;1.20;;;;;;;;;;5040347;28;20469;-73
2022/06/20 10:26:37;;;;;;;2.67;1.23;;;;;;;;;;5043536;28;20461;-73
2022/06/20 10:29:23;;;;;;;5.00;1.30;;;;;;;;;;5047887;28;20473;-73
2022/06/20 10:32:03;;;;;;;3.90;1.30;;;;;;;;;;5046231;28;20473;-74
2022/06/20 10:37:45;;;;;;;2.67;1.00;;;;;;;;;;5036082;28;20458;-73
2022/06/20 10:40:20;;;;;;;3.40;1.10;;;;;;;;;;5045978;28;20851;-73
2022/06/20 10:42:57;;;;;;;2.70;0.90;;;;;;;;;;5054369;28;20461;-74
2022/06/20 10:45:46;;;;;;;4.90;1.40;;;;;;;;;;5040150;28;20458;-74
2022/06/20 10:48:36;;;;;;;3.60;1.40;;;;;;;;;;5032029;28;20871;-74
2022/06/20 10:51:12;;;;;;;2.83;1.77;;;;;;;;;;5040590;28;20462;-74
2022/06/20 10:54:05;;;;;;;3.33;1.07;;;;;;;;;;5036454;28;20477;-73
2022/06/20 10:56:39;;;;;;;6.40;2.50;;;;;;;;;;5045636;28;20470;-73
2022/06/20 10:59:14;;;;;;;3.77;1.37;;;;;;;;;;5041642;28;20472;-74
2022/06/20 11:01:46;;;;;;;3.20;1.23;;;;;;;;;;5055147;28;20509;-73
2022/06/20 11:04:25;;;;;;;3.77;1.60;;;;;;;;;;5036516;28;20542;-72
2022/06/20 11:07:06;;;;;;;5.50;1.53;;;;;;;;;;5044783;28;20526;-74
2022/06/20 11:12:41;;;;;;;2.20;1.10;;;;;;;;;;5035622;28;20462;-72
2022/06/20 11:15:29;;;;;;;2.63;1.30;;;;;;;;;;5041648;28;20526;-73
2022/06/20 11:18:22;;;;;;;3.23;1.23;;;;;;;;;;5034136;28;20948;-73
2022/06/20 11:21:03;;;;;;;5.47;1.60;;;;;;;;;;5032871;28;20903;-74
2022/06/20 11:26:25;;;;;;;4.00;1.73;;;;;;;;;;5040021;28;20476;-73
2022/06/20 11:29:08;;;;;;;4.27;1.47;;;;;;;;;;5016879;28;20580;-73
2022/06/20 11:31:47;;;;;;;3.90;1.40;;;;;;;;;;5044688;28;20452;-72
2022/06/20 11:34:33;;;;;;;8.37;1.37;;;;;;;;;;5039410;28;20897;-72
2022/06/20 11:37:10;;;;;;;6.30;1.53;;;;;;;;;;5033621;28;20451;-72
2022/06/20 11:40:02;;;;;;;4.17;1.47;;;;;;;;;;5039987;28;20491;-72
2022/06/20 11:42:48;;;;;;;4.57;2.40;;;;;;;;;;5039531;28;20537;-73
2022/06/20 11:45:33;;;;;;;7.20;1.70;;;;;;;;;;5038217;28;20500;-73
2022/06/20 11:48:19;;;;;;;9.60;2.00;;;;;;;;;;5045516;28;20875;-71
2022/06/20 11:50:52;;;;;;;3.60;1.50;;;;;;;;;;5043310;28;20941;-72
2022/06/20 11:53:25;;;;;;;4.87;1.70;;;;;;;;;;5049300;28;20446;-73
2022/06/20 11:56:02;;;;;;;8.37;1.40;;;;;;;;;;5041801;28;20473;-73
2022/06/20 11:58:35;;;;;;;4.07;1.73;;;;;;;;;;5043181;28;20452;-72
2022/06/20 12:01:05;;;;;;;3.13;1.20;;;;;;;;;;5033833;28;20534;-71
2022/06/20 12:03:41;;;;;;;3.77;1.67;;;;;;;;;;5042120;28;20516;-72
2022/06/20 12:06:18;;;;;;;8.10;1.93;;;;;;;;;;5031416;28;20557;-72
2022/06/20 12:08:54;;;;;;;4.53;1.70;;;;;;;;;;5045058;28;20453;-73
2022/06/20 12:11:40;;;;;;;5.90;1.70;;;;;;;;;;5046332;28;20878;-73
2022/06/20 12:14:15;;;;;;;3.90;1.57;;;;;;;;;;5032544;28;20548;-73
2022/06/20 12:16:50;;;;;;;3.67;1.70;;;;;;;;;;5034010;28;20889;-72
2022/06/20 12:25:01;;;;;;;3.20;1.20;;;;;;;;;;5048056;28;20813;-71
2022/06/20 12:27:49;;;;;;;2.37;1.23;;;;;;;;;;5043653;28;20454;-72
2022/06/20 12:30:24;;;;;;;6.03;1.40;;;;;;;;;;5033050;28;20468;-71
2022/06/20 12:33:05;;;;;;;3.50;0.97;;;;;;;;;;5033948;28;20449;-72
2022/06/20 12:35:41;;;;;;;3.33;1.40;;;;;;;;;;5032168;28;20545;-73
2022/06/20 12:38:14;;;;;;;2.70;1.23;;;;;;;;;;5040503;28;20873;-74
2022/06/20 12:40:45;;;;;;;2.30;1.20;;;;;;;;;;5036037;28;20473;-73
2022/06/20 12:43:16;;;;;;;3.40;0.97;;;;;;;;;;5044374;28;20641;-73
2022/06/20 12:45:51;;;;;;;7.63;1.40;;;;;;;;;;5040924;28;20558;-73
2022/06/20 12:48:25;;;;;;;3.50;1.30;;;;;;;;;;5048846;28;20472;-72
2022/06/20 12:51:02;;;;;;;4.27;1.50;;;;;;;;;;5039883;28;20464;-72
2022/06/20 12:53:38;;;;;;;6.70;1.17;;;;;;;;;;5048734;28;20793;-72
2022/06/20 12:56:18;;;;;;;3.77;1.13;;;;;;;;;;5045133;28;20501;-74
2022/06/20 12:59:02;;;;;;;2.70;1.50;;;;;;;;;;5047664;28;20452;-73
2022/06/20 13:01:46;;;;;;;2.00;1.10;;;;;;;;;;5037983;28;20491;-74
2022/06/20 13:04:30;;;;;;;2.90;1.20;;;;;;;;;;5038615;28;20568;-71
2022/06/20 13:07:12;;;;;;;4.17;1.00;;;;;;;;;;5036491;28;20661;-72
2022/06/20 13:09:59;;;;;;;2.67;1.10;;;;;;;;;;5037781;28;20554;-74
2022/06/20 13:12:36;;;;;;;3.40;1.50;;;;;;;;;;5035385;28;20462;-72
2022/06/20 13:15:23;;;;;;;4.63;1.33;;;;;;;;;;5039033;28;20460;-72
2022/06/20 13:17:55;;;;;;;2.60;1.00;;;;;;;;;;5035519;28;20945;-74
2022/06/20 13:20:32;;;;;;;5.63;1.60;;;;;;;;;;5032472;28;20585;-74
2022/06/20 13:23:21;;;;;;;3.67;1.30;;;;;;;;;;5031604;28;20462;-73
2022/06/20 13:25:53;;;;;;;4.40;1.43;;;;;;;;;;5039136;28;20521;-74
2022/06/20 13:28:24;;;;;;;3.33;1.43;;;;;;;;;;5030866;28;20878;-74
2022/06/20 13:30:59;;;;;;;7.17;1.97;;;;;;;;;;5035391;28;20462;-72
2022/06/20 13:33:33;;;;;;;3.70;1.67;;;;;;;;;;5041789;28;20749;-73
2022/06/20 13:36:03;;;;;;;2.63;0.90;;;;;;;;;;5045032;28;20465;-72
2022/06/20 13:38:41;;;;;;;3.30;0.90;;;;;;;;;;5036767;28;20917;-73
2022/06/20 13:41:24;;;;;;;3.30;0.97;;;;;;;;;;5043854;28;21016;-72
2022/06/20 13:44:04;;;;;;;3.20;1.03;;;;;;;;;;5029643;28;20481;-73
2022/06/20 13:46:35;;;;;;;5.70;1.10;;;;;;;;;;5031352;28;20454;-71
2022/06/20 13:49:06;;;;;;;3.20;1.00;;;;;;;;;;5051068;28;20500;-72
2022/06/20 13:51:41;;;;;;;5.27;1.20;;;;;;;;;;5035913;28;20462;-74
2022/06/20 13:54:16;;;;;;;2.67;0.80;;;;;;;;;;5036353;28;20913;-73
2022/06/20 13:56:59;;;;;;;4.70;1.10;;;;;;;;;;5051361;28;21010;-73
2022/06/20 13:59:31;;;;;;;6.27;1.40;;;;;;;;;;5034842;28;20521;-73
2022/06/20 14:02:01;;;;;;;4.13;0.87;;;;;;;;;;5042121;28;20883;-74
2022/06/20 14:04:32;;;;;;;3.80;1.20;;;;;;;;;;5040242;28;20477;-73
2022/06/20 14:07:05;;;;;;;2.00;1.00;;;;;;;;;;5037517;28;20483;-74
2022/06/20 14:09:39;;;;;;;4.87;1.73;;;;;;;;;;5049823;28;20478;-73
2022/06/20 14:12:09;;;;;;;3.70;1.10;;;;;;;;;;5036549;28;20465;-73
2022/06/20 14:14:40;;;;;;;3.57;1.00;;;;;;;;;;5045695;28;20923;-73
2022/06/20 14:17:16;;;;;;;5.50;2.33;;;;;;;;;;5041416;28;20579;-74
2022/06/20 14:19:50;;;;;;;4.90;1.30;;;;;;;;;;5036223;28;20894;-75
2022/06/20 14:22:22;;;;;;;2.23;0.90;;;;;;;;;;5045770;28;20456;-73
2022/06/20 14:24:52;;;;;;;2.53;1.00;;;;;;;;;;5050220;28;20897;-74
2022/06/20 14:27:23;;;;;;;2.63;0.80;;;;;;;;;;5042480;28;20454;-72
2022/06/20 14:29:55;;;;;;;2.20;0.80;;;;;;;;;;5036786;28;20495;-74
2022/06/20 14:32:30;;;;;;;3.07;0.77;;;;;;;;;;5042462;28;20461;-72
2022/06/20 14:35:23;;;;;;;2.10;0.80;;;;;;;;;;5037378;28;20796;-72
2022/06/20 14:37:54;;;;;;;2.13;0.77;;;;;;;;;;5043872;28;20526;-71
2022/06/20 14:40:24;;;;;;;2.83;1.00;;;;;;;;;;5045238;28;20485;-73
2022/06/20 14:43:01;;;;;;;3.50;0.87;;;;;;;;;;5038941;28;20532;-71
2022/06/20 14:45:34;;;;;;;2.70;0.90;;;;;;;;;;5037153;28;20473;-73
2022/06/20 14:48:07;;;;;;;2.30;1.00;;;;;;;;;;5035544;28;20474;-72
2022/06/20 14:50:38;;;;;;;3.93;1.20;;;;;;;;;;5042556;28;20474;-73
2022/06/20 14:53:16;;;;;;;4.20;1.00;;;;;;;;;;5051376;28;20544;-72
2022/06/20 14:55:49;;;;;;;3.40;0.90;;;;;;;;;;5038702;28;20498;-73
2022/06/20 14:58:25;;;;;;;3.10;1.23;;;;;;;;;;5039197;28;20787;-73
2022/06/20 15:00:57;;;;;;;2.37;0.90;;;;;;;;;;5041138;28;20542;-73
2022/06/20 15:03:31;;;;;;;2.70;1.00;;;;;;;;;;5038157;28;20823;-73
2022/06/20 15:06:06;;;;;;;3.20;0.90;;;;;;;;;;5043498;28;20470;-74
2022/06/20 15:08:43;;;;;;;6.17;1.50;;;;;;;;;;5041101;28;20547;-75
2022/06/20 15:11:20;;;;;;;2.23;0.90;;;;;;;;;;5041531;28;20560;-74
2022/06/20 15:14:01;;;;;;;5.93;1.10;;;;;;;;;;5044392;28;20508;-73
2022/06/20 15:16:31;;;;;;;3.37;1.10;;;;;;;;;;5034773;28;20459;-71
2022/06/20 15:19:10;;;;;;;2.67;1.07;;;;;;;;;;5034766;28;20848;-73
2022/06/20 15:21:46;;;;;;;2.80;0.90;;;;;;;;;;5044185;28;20480;-73
2022/06/20 15:24:24;;;;;;;3.40;1.23;;;;;;;;;;5033192;28;20536;-74
2022/06/20 15:26:57;;;;;;;4.77;1.20;;;;;;;;;;5043474;28;20458;-73
2022/06/20 15:29:42;;;;;;;4.63;1.10;;;;;;;;;;5039431;28;20469;-73
2022/06/20 15:32:28;;;;;;;3.13;1.47;;;;;;;;;;5033259;28;20480;-72
2022/06/20 15:35:12;;;;;;;6.63;2.53;;;;;;;;;;5048268;28;20521;-73
2022/06/20 15:37:41;;;;;;;4.43;1.80;;;;;;;;;;5042988;28;20458;-73
2022/06/20 15:40:18;;;;;;;2.70;1.00;;;;;;;;;;5049667;28;20509;-73
2022/06/20 15:42:49;;;;;;;1.93;0.87;;;;;;;;;;5042075;28;20530;-73
2022/06/20 15:45:26;;;;;;;2.70;1.33;;;;;;;;;;5034421;28;20572;-73
2022/06/20 15:47:56;;;;;;;4.47;1.60;;;;;;;;;;5035280;28;20461;-73
2022/06/20 15:50:27;;;;;;;4.20;2.30;;;;;;;;;;5041288;28;20738;-75
2022/06/20 15:53:05;;;;;;;3.20;1.57;;;;;;;;;;5046670;28;20469;-73